createdAt,value
2023-05-19T00:00:28.564Z,135.30
2023-05-19T00:02:55.391Z,121.60
2023-05-19T00:05:22.208Z,136.20
2023-05-19T00:07:52.001Z,139.30
2023-05-19T00:10:18.956Z,147.00
2023-05-19T00:12:45.919Z,142.40
2023-05-19T00:15:13.248Z,153.30
2023-05-19T00:17:39.789Z,188.40
2023-05-19T00:20:07.157Z,172.20
2023-05-19T00:22:33.967Z,180.50
2023-05-19T00:25:00.438Z,197.50
2023-05-19T00:27:26.946Z,187.30
2023-05-19T00:29:53.471Z,188.60
2023-05-19T00:32:20.020Z,207.90
2023-05-19T00:34:46.478Z,212.30
2023-05-19T00:37:13.172Z,217.00
2023-05-19T00:39:39.721Z,221.50
2023-05-19T00:42:06.248Z,247.60
2023-05-19T00:44:32.751Z,236.90
2023-05-19T00:46:59.504Z,238.30
2023-05-19T00:49:26.071Z,249.40
2023-05-19T00:51:53.071Z,227.00
2023-05-19T00:54:20.699Z,228.60
2023-05-19T00:56:47.468Z,236.60
2023-05-19T00:59:14.207Z,207.20
2023-05-19T01:01:40.872Z,217.50
2023-05-19T01:04:07.650Z,212.00
2023-05-19T01:06:34.756Z,200.30
2023-05-19T01:09:01.291Z,206.50
2023-05-19T01:11:27.844Z,200.00
2023-05-19T01:13:55.122Z,215.50
2023-05-19T01:16:27.520Z,198.60
2023-05-19T01:18:54.018Z,184.40
2023-05-19T01:21:32.798Z,181.60
2023-05-19T01:24:06.215Z,183.30
2023-05-19T01:26:32.908Z,182.50
2023-05-19T01:29:26.919Z,162.70
2023-05-19T01:31:59.240Z,165.20
2023-05-19T01:34:27.143Z,177.00
2023-05-19T01:36:55.754Z,167.30
2023-05-19T01:39:23.457Z,183.10
2023-05-19T01:41:52.367Z,154.40
2023-05-19T01:44:19.963Z,144.00
2023-05-19T01:46:47.465Z,142.70
2023-05-19T01:49:14.443Z,143.80
2023-05-19T01:51:41.699Z,148.10
2023-05-19T01:54:08.362Z,143.90
2023-05-19T01:57:10.946Z,140.40
2023-05-19T01:59:48.164Z,134.50
2023-05-19T02:02:40.654Z,131.10
2023-05-19T02:05:13.824Z,145.60
2023-05-19T02:07:48.791Z,150.90
2023-05-19T02:10:22.751Z,148.90
2023-05-19T02:12:53.962Z,140.40
2023-05-19T02:17:59.952Z,150.80
2023-05-19T02:20:26.580Z,160.40
2023-05-19T02:22:53.233Z,159.90
2023-05-19T02:25:19.919Z,141.30
2023-05-19T02:27:46.424Z,147.80
2023-05-19T02:30:13.199Z,145.80
2023-05-19T02:32:39.820Z,165.30
2023-05-19T02:35:07.275Z,150.80
2023-05-19T02:37:33.778Z,148.70
2023-05-19T02:40:00.305Z,156.10
2023-05-19T02:42:26.757Z,159.00
2023-05-19T02:44:54.826Z,145.10
2023-05-19T02:47:21.570Z,133.00
2023-05-19T02:49:48.648Z,126.50
2023-05-19T02:52:15.202Z,131.00
2023-05-19T02:54:41.726Z,133.00
2023-05-19T02:57:08.302Z,132.30
2023-05-19T02:59:34.943Z,131.40
2023-05-19T03:02:02.857Z,132.20
2023-05-19T03:04:29.958Z,136.00
2023-05-19T03:06:57.082Z,144.00
2023-05-19T03:09:23.920Z,136.70
2023-05-19T03:11:50.353Z,129.70
2023-05-19T03:14:16.851Z,137.70
2023-05-19T03:16:43.694Z,132.80
2023-05-19T03:19:10.657Z,150.20
2023-05-19T03:21:37.163Z,151.20
2023-05-19T03:24:04.252Z,150.90
2023-05-19T03:26:30.772Z,147.20
2023-05-19T03:28:57.648Z,153.80
2023-05-19T03:31:24.452Z,159.20
2023-05-19T03:33:50.941Z,153.20
2023-05-19T03:36:17.425Z,156.40
2023-05-19T03:38:43.908Z,159.60
2023-05-19T03:41:10.494Z,132.50
2023-05-19T03:43:37.040Z,134.10
2023-05-19T03:46:03.580Z,141.40
2023-05-19T03:48:30.309Z,116.30
2023-05-19T03:50:56.954Z,121.70
2023-05-19T03:53:23.844Z,125.40
2023-05-19T03:55:50.314Z,112.90
2023-05-19T03:58:17.140Z,127.30
2023-05-19T04:00:43.755Z,121.90
2023-05-19T04:03:10.397Z,121.80
2023-05-19T04:05:37.258Z,117.20
2023-05-19T04:08:04.016Z,111.40
2023-05-19T04:10:30.829Z,98.10
2023-05-19T04:12:57.719Z,104.40
2023-05-19T04:15:24.688Z,105.30
2023-05-19T04:17:51.240Z,98.70
2023-05-19T04:20:17.917Z,98.80
2023-05-19T04:22:44.587Z,100.00
2023-05-19T04:25:11.220Z,87.10
2023-05-19T04:27:37.788Z,80.70
2023-05-19T04:30:06.099Z,88.80
2023-05-19T04:32:32.753Z,82.40
2023-05-19T04:34:59.758Z,85.00
2023-05-19T04:37:26.547Z,76.70
2023-05-19T04:39:53.450Z,90.20
2023-05-19T04:42:20.197Z,90.40
2023-05-19T04:44:47.472Z,77.10
2023-05-19T04:47:13.977Z,77.80
2023-05-19T04:49:40.513Z,75.40
2023-05-19T04:52:08.725Z,71.90
2023-05-19T04:54:35.574Z,85.40
2023-05-19T04:57:02.379Z,76.60
2023-05-19T04:59:28.895Z,63.70
2023-05-19T05:01:55.954Z,69.50
2023-05-19T05:04:23.538Z,71.70
2023-05-19T05:06:50.442Z,67.80
2023-05-19T05:09:18.063Z,62.80
2023-05-19T05:11:45.101Z,65.20
2023-05-19T05:14:11.957Z,77.50
2023-05-19T05:16:39.000Z,84.30
2023-05-19T05:19:05.735Z,100.70
2023-05-19T05:21:32.646Z,83.30
2023-05-19T05:23:59.591Z,80.40
2023-05-19T05:26:30.746Z,83.30
2023-05-19T05:28:57.322Z,65.90
2023-05-19T05:31:23.811Z,68.50
2023-05-19T05:33:50.814Z,71.50
2023-05-19T05:36:17.519Z,54.90
2023-05-19T05:38:44.004Z,55.50
2023-05-19T05:41:10.708Z,35.60
2023-05-19T05:43:37.304Z,39.30
2023-05-19T05:46:03.971Z,41.30
2023-05-19T05:48:31.041Z,24.60
2023-05-19T05:50:59.301Z,23.00
2023-05-19T05:53:30.195Z,17.80
2023-05-19T05:55:57.293Z,14.90
2023-05-19T05:58:23.734Z,13.40
2023-05-19T06:00:50.579Z,12.50
2023-05-19T06:03:17.303Z,13.50
2023-05-19T06:05:44.183Z,11.30
2023-05-19T06:08:10.719Z,11.20
2023-05-19T06:10:37.389Z,9.20
2023-05-19T06:13:04.041Z,8.20
2023-05-19T06:15:30.736Z,9.50
2023-05-19T06:17:57.703Z,13.60
2023-05-19T06:20:24.312Z,7.60
2023-05-19T06:22:50.770Z,7.10
2023-05-19T06:25:17.558Z,6.70
2023-05-19T06:27:44.024Z,10.80
2023-05-19T06:30:11.160Z,6.80
2023-05-19T06:32:37.645Z,6.30
2023-05-19T06:35:04.904Z,8.20
2023-05-19T06:37:31.367Z,7.30
2023-05-19T06:39:57.900Z,8.10
2023-05-19T06:42:24.551Z,11.20
2023-05-19T06:44:52.662Z,9.40
2023-05-19T06:47:19.981Z,11.30
2023-05-19T06:49:46.642Z,9.40
2023-05-19T06:52:13.265Z,8.00
2023-05-19T06:54:39.934Z,7.50
2023-05-19T06:57:06.637Z,7.40
2023-05-19T06:59:33.103Z,8.50
2023-05-19T07:01:59.850Z,7.80
2023-05-19T07:04:26.442Z,7.30
2023-05-19T07:06:52.868Z,6.40
2023-05-19T07:09:19.508Z,7.50
2023-05-19T07:11:46.430Z,5.70
2023-05-19T07:14:12.894Z,9.90
2023-05-19T07:16:39.515Z,8.50
2023-05-19T07:19:06.161Z,9.80
2023-05-19T07:21:32.906Z,8.00
2023-05-19T07:23:59.406Z,8.10
2023-05-19T07:26:25.917Z,4.20
2023-05-19T07:28:52.684Z,6.40
2023-05-19T07:31:19.327Z,7.50
2023-05-19T07:33:45.839Z,4.70
2023-05-19T07:36:12.366Z,4.60
2023-05-19T07:38:38.938Z,3.70
2023-05-19T07:41:05.731Z,3.90
2023-05-19T07:43:32.255Z,4.80
2023-05-19T07:45:58.853Z,5.70
2023-05-19T07:48:25.439Z,4.00
2023-05-19T07:50:52.966Z,4.50
2023-05-19T07:53:20.435Z,5.70
2023-05-19T07:55:47.250Z,5.30
2023-05-19T07:58:14.120Z,3.60
2023-05-19T08:00:40.848Z,4.10
2023-05-19T08:03:07.437Z,4.80
2023-05-19T08:05:35.075Z,4.00
2023-05-19T08:08:02.243Z,4.50
2023-05-19T08:10:29.113Z,5.10
2023-05-19T08:12:55.777Z,4.60
2023-05-19T08:15:22.345Z,5.20
2023-05-19T08:17:49.090Z,5.80
2023-05-19T08:20:15.656Z,5.50
2023-05-19T08:22:42.279Z,5.70
2023-05-19T08:25:09.346Z,7.60
2023-05-19T08:27:36.012Z,7.20
2023-05-19T08:30:02.538Z,5.70
2023-05-19T08:32:29.056Z,5.50
2023-05-19T08:34:55.517Z,4.90
2023-05-19T08:37:22.255Z,7.60
2023-05-19T08:39:48.807Z,5.50
2023-05-19T08:42:15.403Z,5.60
2023-05-19T08:44:42.563Z,8.30
2023-05-19T08:47:09.738Z,6.00
2023-05-19T08:49:45.323Z,5.40
2023-05-19T08:55:04.859Z,6.40
2023-05-19T08:57:32.305Z,5.80
2023-05-19T08:59:59.358Z,5.70
2023-05-19T09:02:26.866Z,5.70
2023-05-19T09:04:53.914Z,5.80
2023-05-19T09:07:23.043Z,5.00
2023-05-19T09:09:49.548Z,5.80
2023-05-19T09:12:16.327Z,4.90
2023-05-19T09:14:43.005Z,6.20
2023-05-19T09:17:10.104Z,4.80
2023-05-19T09:19:43.148Z,5.60
2023-05-19T09:22:09.770Z,8.30
2023-05-19T09:24:36.399Z,5.40
2023-05-19T09:27:02.903Z,5.90
2023-05-19T09:29:29.707Z,5.00
2023-05-19T09:31:57.083Z,6.30
2023-05-19T09:34:23.953Z,5.50
2023-05-19T09:36:50.944Z,5.30
2023-05-19T09:39:19.654Z,5.00
2023-05-19T09:41:46.448Z,6.90
2023-05-19T09:44:35.190Z,6.10
2023-05-19T09:47:01.773Z,6.30
2023-05-19T09:49:29.937Z,4.60
2023-05-19T09:52:02.427Z,6.60
2023-05-19T09:54:30.091Z,7.50
2023-05-19T09:56:58.474Z,5.60
2023-05-19T09:59:26.524Z,6.70
2023-05-19T10:01:57.905Z,6.70
2023-05-19T10:04:28.833Z,6.00
2023-05-19T10:09:24.657Z,5.90
2023-05-19T10:11:55.968Z,6.70
2023-05-19T10:14:24.385Z,6.20
2023-05-19T10:16:52.116Z,8.50
2023-05-19T10:19:23.470Z,8.30
2023-05-19T10:21:50.913Z,8.20
2023-05-19T10:24:18.495Z,6.30
2023-05-19T10:27:02.444Z,7.20
2023-05-19T10:29:33.445Z,7.40
2023-05-19T10:35:03.719Z,7.40
2023-05-19T10:38:07.588Z,6.00
2023-05-19T10:40:38.941Z,6.50
2023-05-19T10:43:21.832Z,6.20
2023-05-19T10:45:51.446Z,8.20
2023-05-19T10:48:20.484Z,6.60
2023-05-19T10:50:47.752Z,7.00
2023-05-19T10:53:15.981Z,7.90
2023-05-19T10:55:46.257Z,7.50
2023-05-19T10:58:12.736Z,5.60
2023-05-19T11:00:39.991Z,6.50
2023-05-19T11:03:17.549Z,5.80
2023-05-19T11:05:44.582Z,7.20
2023-05-19T11:08:12.056Z,9.20
2023-05-19T11:10:39.467Z,9.10
2023-05-19T11:13:06.563Z,7.20
2023-05-19T11:15:36.657Z,9.00
2023-05-19T11:18:04.533Z,8.10
2023-05-19T11:20:31.366Z,10.70
2023-05-19T11:23:15.103Z,8.60
2023-05-19T11:25:50.048Z,9.50
2023-05-19T11:28:19.226Z,9.20
2023-05-19T11:30:48.403Z,9.60
2023-05-19T11:33:15.009Z,8.70
2023-05-19T11:35:43.392Z,8.90
2023-05-19T11:38:11.494Z,8.50
2023-05-19T11:40:38.448Z,9.20
2023-05-19T11:43:04.955Z,7.90
2023-05-19T11:45:32.658Z,10.30
2023-05-19T11:48:03.080Z,9.50
2023-05-19T11:50:31.836Z,9.90
2023-05-19T11:53:00.975Z,7.90
2023-05-19T11:55:28.136Z,8.50
2023-05-19T11:58:04.943Z,9.50
2023-05-19T12:00:44.806Z,9.70
2023-05-19T12:03:11.822Z,7.70
2023-05-19T12:05:44.064Z,9.00
2023-05-19T12:08:11.923Z,9.00
2023-05-19T12:10:39.700Z,8.60
2023-05-19T12:13:06.990Z,7.40
2023-05-19T12:15:33.708Z,10.70
2023-05-19T12:18:02.166Z,8.10
2023-05-19T12:20:30.597Z,7.50
2023-05-19T12:22:58.234Z,8.40
2023-05-19T12:25:25.428Z,8.70
2023-05-19T12:27:51.981Z,8.80
2023-05-19T12:30:18.993Z,9.10
2023-05-19T12:32:46.474Z,10.10
2023-05-19T12:35:12.994Z,9.50
2023-05-19T12:37:42.770Z,8.70
2023-05-19T12:40:09.963Z,10.20
2023-05-19T12:42:36.685Z,10.40
2023-05-19T12:45:04.572Z,9.70
2023-05-19T12:47:33.669Z,8.50
2023-05-19T12:50:00.282Z,9.70
2023-05-19T12:52:29.370Z,10.20
2023-05-19T12:55:04.652Z,7.70
2023-05-19T12:57:31.695Z,10.60
2023-05-19T13:00:06.698Z,9.40
2023-05-19T13:02:35.215Z,9.80
2023-05-19T13:05:02.393Z,13.10
2023-05-19T13:07:29.165Z,11.00
2023-05-19T13:09:55.743Z,11.40
2023-05-19T13:12:22.284Z,10.60
2023-05-19T13:14:48.785Z,13.30
2023-05-19T13:17:15.378Z,8.40
2023-05-19T13:19:41.929Z,9.10
2023-05-19T13:22:08.405Z,8.90
2023-05-19T13:24:34.944Z,8.30
2023-05-19T13:27:01.424Z,10.50
2023-05-19T13:29:28.234Z,10.20
2023-05-19T13:31:54.740Z,8.80
2023-05-19T13:34:21.253Z,9.10
2023-05-19T13:36:47.775Z,11.30
2023-05-19T13:39:14.644Z,9.00
2023-05-19T13:41:41.118Z,9.50
2023-05-19T13:44:07.667Z,11.90
2023-05-19T13:46:44.583Z,9.10
2023-05-19T13:49:12.350Z,8.70
2023-05-19T13:51:42.260Z,10.70
2023-05-19T13:54:09.195Z,14.60
2023-05-19T13:56:36.391Z,8.70
2023-05-19T13:59:03.786Z,9.50
2023-05-19T14:01:30.422Z,10.10
2023-05-19T14:03:57.381Z,10.90
2023-05-19T14:06:24.085Z,11.90
2023-05-19T14:08:50.846Z,12.80
2023-05-19T14:11:18.535Z,11.70
2023-05-19T14:13:45.543Z,11.20
2023-05-19T14:16:12.065Z,10.30
2023-05-19T14:18:38.647Z,10.90
2023-05-19T14:21:05.793Z,14.90
2023-05-19T14:23:32.269Z,10.80
2023-05-19T14:25:58.729Z,13.00
2023-05-19T14:28:26.636Z,11.20
2023-05-19T14:30:53.275Z,11.60
2023-05-19T14:33:21.059Z,10.30
2023-05-19T14:35:48.052Z,11.90
2023-05-19T14:38:14.660Z,11.60
2023-05-19T14:40:41.183Z,11.90
2023-05-19T14:43:08.004Z,14.90
2023-05-19T14:45:34.483Z,11.30
2023-05-19T14:48:01.350Z,22.40
2023-05-19T14:50:29.321Z,23.00
2023-05-19T14:52:57.248Z,12.90
2023-05-19T14:55:23.961Z,11.20
2023-05-19T14:57:50.598Z,15.00
2023-05-19T15:00:17.298Z,12.40
2023-05-19T15:02:44.180Z,13.60
2023-05-19T15:05:10.835Z,11.90
2023-05-19T15:07:37.780Z,11.10
2023-05-19T15:10:04.782Z,10.00
2023-05-19T15:12:31.722Z,15.00
2023-05-19T15:14:58.589Z,15.60
2023-05-19T15:17:25.201Z,11.30
2023-05-19T15:19:51.906Z,11.50
2023-05-19T15:22:18.417Z,11.50
2023-05-19T15:24:44.968Z,11.70
2023-05-19T15:27:11.777Z,13.00
2023-05-19T15:29:38.259Z,14.10
2023-05-19T15:32:05.738Z,14.30
2023-05-19T15:34:32.292Z,14.80
2023-05-19T15:36:58.849Z,13.00
2023-05-19T15:39:25.453Z,14.20
2023-05-19T15:41:52.192Z,14.60
2023-05-19T15:44:19.028Z,15.50
2023-05-19T15:46:45.689Z,13.00
2023-05-19T15:49:12.802Z,9.80
2023-05-19T15:51:39.807Z,12.60
2023-05-19T15:54:06.372Z,12.50
2023-05-19T15:56:32.865Z,21.90
2023-05-19T15:58:59.392Z,13.80
2023-05-19T16:01:26.090Z,12.40
2023-05-19T16:03:52.879Z,12.80
2023-05-19T16:06:19.813Z,11.90
2023-05-19T16:08:46.438Z,11.60
2023-05-19T16:11:13.003Z,13.20
2023-05-19T16:13:39.497Z,16.90
2023-05-19T16:16:06.634Z,14.90
2023-05-19T16:18:33.549Z,14.50
2023-05-19T16:21:00.170Z,12.40
2023-05-19T16:23:26.704Z,15.60
2023-05-19T16:25:53.447Z,18.40
2023-05-19T16:28:22.351Z,14.90
2023-05-19T16:30:50.082Z,15.70
2023-05-19T16:33:16.835Z,18.00
2023-05-19T16:35:43.429Z,17.00
2023-05-19T16:38:09.905Z,19.70
2023-05-19T16:40:36.888Z,16.40
2023-05-19T16:43:03.959Z,20.80
2023-05-19T16:45:30.478Z,22.80
2023-05-19T16:47:57.128Z,20.50
2023-05-19T16:50:23.666Z,21.50
2023-05-19T16:52:50.220Z,18.40
2023-05-19T16:55:16.760Z,23.00
2023-05-19T16:57:43.350Z,21.80
2023-05-19T17:00:10.950Z,19.80
2023-05-19T17:02:37.792Z,19.00
2023-05-19T17:05:04.829Z,18.50
2023-05-19T17:07:31.401Z,18.30
2023-05-19T17:09:57.887Z,22.70
2023-05-19T17:12:24.345Z,25.00
2023-05-19T17:14:51.036Z,19.80
2023-05-19T17:17:18.072Z,19.10
2023-05-19T17:19:44.605Z,19.30
2023-05-19T17:22:11.105Z,53.50
2023-05-19T17:24:37.599Z,27.60
2023-05-19T17:27:04.631Z,24.90
2023-05-19T17:29:31.111Z,21.80
2023-05-19T17:31:57.818Z,20.50
2023-05-19T17:34:24.421Z,22.60
2023-05-19T17:36:50.939Z,27.50
2023-05-19T17:39:17.454Z,19.60
2023-05-19T17:41:44.054Z,24.90
2023-05-19T17:44:10.694Z,22.70
2023-05-19T17:46:37.317Z,21.70
2023-05-19T17:49:04.115Z,24.80
2023-05-19T17:51:30.855Z,19.50
2023-05-19T17:53:58.319Z,22.00
2023-05-19T17:56:25.561Z,24.20
2023-05-19T17:58:52.375Z,21.90
2023-05-19T18:01:19.352Z,24.50
2023-05-19T18:03:46.283Z,27.70
2023-05-19T18:06:13.446Z,24.50
2023-05-19T18:08:41.257Z,33.10
2023-05-19T18:11:08.706Z,34.80
2023-05-19T18:13:35.417Z,28.30
2023-05-19T18:16:01.908Z,28.80
2023-05-19T18:18:28.495Z,33.00
2023-05-19T18:20:54.964Z,80.20
2023-05-19T18:23:22.471Z,77.30
2023-05-19T18:25:50.376Z,54.50
2023-05-19T18:28:16.913Z,40.50
2023-05-19T18:30:43.596Z,37.60
2023-05-19T18:33:10.204Z,55.80
2023-05-19T18:35:37.288Z,125.50
2023-05-19T18:38:03.922Z,179.70
2023-05-19T18:40:30.545Z,111.80
2023-05-19T18:42:57.049Z,84.90
2023-05-19T18:45:23.517Z,45.10
2023-05-19T18:47:49.985Z,37.00
2023-05-19T18:50:16.474Z,36.80
2023-05-19T18:52:42.954Z,39.60
2023-05-19T18:55:10.129Z,36.10
2023-05-19T18:57:36.615Z,33.00
2023-05-19T19:00:03.350Z,35.60
2023-05-19T19:02:30.024Z,81.30
2023-05-19T19:04:56.780Z,58.10
2023-05-19T19:07:24.487Z,39.70
2023-05-19T19:09:50.966Z,37.90
2023-05-19T19:12:19.059Z,41.40
2023-05-19T19:14:46.844Z,38.50
2023-05-19T19:17:13.423Z,38.80
2023-05-19T19:19:40.258Z,40.50
2023-05-19T19:22:06.840Z,39.40
2023-05-19T19:24:33.302Z,40.40
2023-05-19T19:26:59.910Z,41.40
2023-05-19T19:29:26.431Z,44.00
2023-05-19T19:31:52.945Z,48.20
2023-05-19T19:34:19.549Z,45.90
2023-05-19T19:36:46.026Z,43.50
2023-05-19T19:39:12.672Z,67.70
2023-05-19T19:41:39.244Z,51.20
2023-05-19T19:44:05.952Z,47.10
2023-05-19T19:46:32.435Z,45.20
2023-05-19T19:48:58.939Z,42.20
2023-05-19T19:51:26.166Z,47.40
2023-05-19T19:53:52.662Z,48.20
2023-05-19T19:56:19.195Z,43.50
2023-05-19T19:58:45.967Z,45.10
2023-05-19T20:01:12.457Z,47.80
2023-05-19T20:03:39.285Z,52.10
2023-05-19T20:06:05.877Z,49.90
2023-05-19T20:08:32.363Z,52.50
2023-05-19T20:10:58.855Z,47.60
2023-05-19T20:13:25.547Z,47.60
2023-05-19T20:15:52.238Z,47.80
2023-05-19T20:18:19.005Z,49.50
2023-05-19T20:20:45.641Z,44.50
2023-05-19T20:23:12.172Z,45.20
2023-05-19T20:25:41.114Z,42.90
2023-05-19T20:28:11.245Z,42.60
2023-05-19T20:30:37.778Z,42.90
2023-05-19T20:33:04.605Z,38.70
2023-05-19T20:35:31.335Z,46.30
2023-05-19T20:37:57.959Z,43.10
2023-05-19T20:40:24.598Z,41.20
2023-05-19T20:42:51.105Z,42.70
2023-05-19T20:45:17.877Z,44.20
2023-05-19T20:47:44.555Z,46.50
2023-05-19T20:50:11.049Z,46.20
2023-05-19T20:52:37.522Z,47.10
2023-05-19T20:55:04.182Z,48.00
2023-05-19T20:57:30.742Z,52.90
2023-05-19T20:59:57.192Z,48.30
2023-05-19T21:02:23.701Z,50.60
2023-05-19T21:04:50.291Z,58.80
2023-05-19T21:07:16.908Z,54.40
2023-05-19T21:09:44.395Z,49.40
2023-05-19T21:12:10.892Z,48.10
2023-05-19T21:14:37.329Z,47.90
2023-05-19T21:17:04.016Z,45.90
2023-05-19T21:19:30.744Z,36.90
2023-05-19T21:21:57.234Z,32.90
2023-05-19T21:24:23.733Z,40.20
2023-05-19T21:26:50.230Z,48.10
2023-05-19T21:29:16.919Z,41.60
2023-05-19T21:31:43.409Z,45.20
2023-05-19T21:34:10.080Z,51.30
2023-05-19T21:36:36.560Z,48.30
2023-05-19T21:39:03.074Z,49.80
2023-05-19T21:41:30.079Z,48.00
2023-05-19T21:43:56.623Z,58.00
2023-05-19T21:46:23.226Z,52.20
2023-05-19T21:48:49.918Z,56.10
2023-05-19T21:51:16.387Z,55.20
2023-05-19T21:53:42.824Z,50.70
2023-05-19T21:56:09.330Z,54.50
2023-05-19T21:58:35.967Z,61.80
2023-05-19T22:01:02.472Z,56.60
2023-05-19T22:03:29.036Z,56.80
2023-05-19T22:05:56.296Z,57.40
2023-05-19T22:08:22.753Z,60.20
2023-05-19T22:10:50.599Z,56.30
2023-05-19T22:13:17.852Z,57.20
2023-05-19T22:15:45.108Z,57.20
2023-05-19T22:18:12.107Z,56.90
2023-05-19T22:20:38.830Z,55.20
2023-05-19T22:23:05.517Z,55.60
2023-05-19T22:25:32.046Z,56.40
2023-05-19T22:27:58.637Z,57.70
2023-05-19T22:30:25.134Z,58.20
2023-05-19T22:32:51.762Z,56.20
2023-05-19T22:35:18.688Z,55.00
2023-05-19T22:37:45.173Z,52.60
2023-05-19T22:40:12.113Z,56.10
2023-05-19T22:42:38.697Z,54.90
2023-05-19T22:45:05.895Z,55.60
2023-05-19T22:47:32.421Z,52.80
2023-05-19T22:49:58.913Z,52.10
2023-05-19T22:52:25.488Z,52.80
2023-05-19T22:54:52.015Z,52.70
2023-05-19T22:57:18.633Z,52.80
2023-05-19T22:59:45.160Z,48.40
2023-05-19T23:02:11.672Z,59.40
2023-05-19T23:04:38.313Z,55.00
2023-05-19T23:07:05.185Z,56.50
2023-05-19T23:09:31.654Z,58.90
2023-05-19T23:11:58.276Z,54.20
2023-05-19T23:14:24.833Z,54.80
2023-05-19T23:16:51.760Z,50.10
2023-05-19T23:19:18.333Z,59.50
2023-05-19T23:21:44.919Z,59.20
2023-05-19T23:24:11.537Z,50.90
2023-05-19T23:26:38.088Z,48.60
2023-05-19T23:29:04.863Z,45.40
2023-05-19T23:31:31.464Z,43.00
2023-05-19T23:34:01.465Z,49.00
2023-05-19T23:36:28.245Z,48.20
2023-05-19T23:38:54.813Z,53.10
2023-05-19T23:41:21.276Z,49.00
2023-05-19T23:43:47.730Z,48.10
2023-05-19T23:46:14.333Z,49.50
2023-05-19T23:48:40.927Z,54.20
2023-05-19T23:51:07.731Z,54.10
2023-05-19T23:53:34.585Z,47.70
2023-05-19T23:56:01.054Z,48.40
2023-05-19T23:58:27.563Z,56.60
